sensor_id;sensor_type;location;lat;lon;timestamp;P1;durP1;ratioP1;P2;durP2;ratioP2
39020;SDS011;25188;51.958;5.842;2023-12-04T00:00:16;37.53;;;17.67;;
39020;SDS011;25188;51.958;5.842;2023-12-04T00:02:41;35.17;;;18.03;;
39020;SDS011;25188;51.958;5.842;2023-12-04T00:05:07;38.07;;;17.37;;
39020;SDS011;25188;51.958;5.842;2023-12-04T00:07:33;40.93;;;19.00;;
39020;SDS011;25188;51.958;5.842;2023-12-04T00:09:59;36.30;;;18.63;;
39020;SDS011;25188;51.958;5.842;2023-12-04T00:12:26;36.30;;;17.90;;
39020;SDS011;25188;51.958;5.842;2023-12-04T00:14:51;38.47;;;19.37;;
39020;SDS011;25188;51.958;5.842;2023-12-04T00:17:17;33.20;;;17.30;;
39020;SDS011;25188;51.958;5.842;2023-12-04T00:19:43;32.53;;;16.43;;
39020;SDS011;25188;51.958;5.842;2023-12-04T00:22:09;36.80;;;17.90;;
39020;SDS011;25188;51.958;5.842;2023-12-04T00:24:35;37.87;;;18.83;;
39020;SDS011;25188;51.958;5.842;2023-12-04T00:27:00;34.93;;;17.20;;
39020;SDS011;25188;51.958;5.842;2023-12-04T00:29:26;36.10;;;18.50;;
39020;SDS011;25188;51.958;5.842;2023-12-04T00:31:52;34.50;;;17.60;;
39020;SDS011;25188;51.958;5.842;2023-12-04T00:34:17;36.57;;;17.27;;
39020;SDS011;25188;51.958;5.842;2023-12-04T00:36:43;31.03;;;16.50;;
39020;SDS011;25188;51.958;5.842;2023-12-04T00:39:08;37.80;;;19.00;;
39020;SDS011;25188;51.958;5.842;2023-12-04T00:41:34;32.07;;;16.43;;
39020;SDS011;25188;51.958;5.842;2023-12-04T00:44:00;36.30;;;17.70;;
39020;SDS011;25188;51.958;5.842;2023-12-04T00:46:25;34.27;;;17.50;;
39020;SDS011;25188;51.958;5.842;2023-12-04T00:48:51;34.07;;;16.73;;
39020;SDS011;25188;51.958;5.842;2023-12-04T00:51:17;35.93;;;17.30;;
39020;SDS011;25188;51.958;5.842;2023-12-04T00:53:42;36.57;;;17.47;;
39020;SDS011;25188;51.958;5.842;2023-12-04T00:56:08;34.37;;;17.07;;
39020;SDS011;25188;51.958;5.842;2023-12-04T00:58:34;35.13;;;16.50;;
39020;SDS011;25188;51.958;5.842;2023-12-04T01:01:00;34.30;;;17.40;;
39020;SDS011;25188;51.958;5.842;2023-12-04T01:03:25;30.37;;;15.37;;
39020;SDS011;25188;51.958;5.842;2023-12-04T01:05:51;36.93;;;16.47;;
39020;SDS011;25188;51.958;5.842;2023-12-04T01:08:17;34.13;;;17.37;;
39020;SDS011;25188;51.958;5.842;2023-12-04T01:10:43;30.47;;;16.03;;
39020;SDS011;25188;51.958;5.842;2023-12-04T01:13:08;35.50;;;17.33;;
39020;SDS011;25188;51.958;5.842;2023-12-04T01:15:34;34.53;;;17.27;;
39020;SDS011;25188;51.958;5.842;2023-12-04T01:18:00;35.67;;;18.47;;
39020;SDS011;25188;51.958;5.842;2023-12-04T01:20:26;34.57;;;17.23;;
39020;SDS011;25188;51.958;5.842;2023-12-04T01:22:51;37.03;;;17.43;;
39020;SDS011;25188;51.958;5.842;2023-12-04T01:25:17;37.63;;;18.27;;
39020;SDS011;25188;51.958;5.842;2023-12-04T01:27:43;31.47;;;16.50;;
39020;SDS011;25188;51.958;5.842;2023-12-04T01:30:09;35.20;;;16.33;;
39020;SDS011;25188;51.958;5.842;2023-12-04T01:32:35;33.83;;;16.90;;
39020;SDS011;25188;51.958;5.842;2023-12-04T01:35:01;34.87;;;16.97;;
39020;SDS011;25188;51.958;5.842;2023-12-04T01:37:27;30.43;;;15.27;;
39020;SDS011;25188;51.958;5.842;2023-12-04T01:39:53;30.67;;;14.30;;
39020;SDS011;25188;51.958;5.842;2023-12-04T01:42:18;30.07;;;14.57;;
39020;SDS011;25188;51.958;5.842;2023-12-04T01:44:44;32.83;;;15.77;;
39020;SDS011;25188;51.958;5.842;2023-12-04T01:47:10;26.63;;;14.63;;
39020;SDS011;25188;51.958;5.842;2023-12-04T01:49:36;29.47;;;14.23;;
39020;SDS011;25188;51.958;5.842;2023-12-04T01:52:02;27.90;;;13.50;;
39020;SDS011;25188;51.958;5.842;2023-12-04T01:54:29;28.20;;;14.27;;
39020;SDS011;25188;51.958;5.842;2023-12-04T01:56:56;28.17;;;14.60;;
39020;SDS011;25188;51.958;5.842;2023-12-04T01:59:22;30.20;;;15.00;;
39020;SDS011;25188;51.958;5.842;2023-12-04T02:01:49;30.70;;;15.10;;
39020;SDS011;25188;51.958;5.842;2023-12-04T02:04:14;29.63;;;15.00;;
39020;SDS011;25188;51.958;5.842;2023-12-04T02:06:40;33.67;;;14.83;;
39020;SDS011;25188;51.958;5.842;2023-12-04T02:09:06;31.07;;;14.80;;
39020;SDS011;25188;51.958;5.842;2023-12-04T02:11:34;28.97;;;13.57;;
39020;SDS011;25188;51.958;5.842;2023-12-04T02:14:00;28.13;;;14.23;;
39020;SDS011;25188;51.958;5.842;2023-12-04T02:16:26;27.13;;;14.40;;
39020;SDS011;25188;51.958;5.842;2023-12-04T02:18:54;27.47;;;14.07;;
39020;SDS011;25188;51.958;5.842;2023-12-04T02:21:20;28.33;;;14.43;;
39020;SDS011;25188;51.958;5.842;2023-12-04T02:23:49;25.90;;;13.30;;
39020;SDS011;25188;51.958;5.842;2023-12-04T02:26:16;29.10;;;13.80;;
39020;SDS011;25188;51.958;5.842;2023-12-04T02:28:50;25.93;;;13.77;;
39020;SDS011;25188;51.958;5.842;2023-12-04T02:31:20;26.35;;;12.90;;
39020;SDS011;25188;51.958;5.842;2023-12-04T02:33:48;23.53;;;12.60;;
39020;SDS011;25188;51.958;5.842;2023-12-04T02:36:20;27.00;;;13.60;;
39020;SDS011;25188;51.958;5.842;2023-12-04T02:38:49;27.47;;;12.83;;
39020;SDS011;25188;51.958;5.842;2023-12-04T02:41:16;27.63;;;13.83;;
39020;SDS011;25188;51.958;5.842;2023-12-04T02:43:42;25.33;;;12.77;;
39020;SDS011;25188;51.958;5.842;2023-12-04T02:46:08;27.40;;;13.97;;
39020;SDS011;25188;51.958;5.842;2023-12-04T02:48:34;29.77;;;14.23;;
39020;SDS011;25188;51.958;5.842;2023-12-04T02:51:00;26.17;;;12.57;;
39020;SDS011;25188;51.958;5.842;2023-12-04T02:53:26;24.73;;;12.23;;
39020;SDS011;25188;51.958;5.842;2023-12-04T02:55:52;22.33;;;12.20;;
39020;SDS011;25188;51.958;5.842;2023-12-04T02:58:17;29.07;;;12.77;;
39020;SDS011;25188;51.958;5.842;2023-12-04T03:00:43;26.70;;;13.07;;
39020;SDS011;25188;51.958;5.842;2023-12-04T03:03:09;26.60;;;13.47;;
39020;SDS011;25188;51.958;5.842;2023-12-04T03:05:35;24.70;;;12.70;;
39020;SDS011;25188;51.958;5.842;2023-12-04T03:08:00;23.93;;;12.00;;
39020;SDS011;25188;51.958;5.842;2023-12-04T03:10:26;22.67;;;11.87;;
39020;SDS011;25188;51.958;5.842;2023-12-04T03:12:51;23.87;;;11.23;;
39020;SDS011;25188;51.958;5.842;2023-12-04T03:15:17;25.03;;;12.93;;
39020;SDS011;25188;51.958;5.842;2023-12-04T03:17:43;23.03;;;12.87;;
39020;SDS011;25188;51.958;5.842;2023-12-04T03:20:08;23.53;;;11.80;;
39020;SDS011;25188;51.958;5.842;2023-12-04T03:22:36;27.50;;;12.87;;
39020;SDS011;25188;51.958;5.842;2023-12-04T03:25:02;21.53;;;11.70;;
39020;SDS011;25188;51.958;5.842;2023-12-04T03:27:28;24.67;;;12.23;;
39020;SDS011;25188;51.958;5.842;2023-12-04T03:29:53;24.50;;;12.17;;
39020;SDS011;25188;51.958;5.842;2023-12-04T03:32:19;23.77;;;11.87;;
39020;SDS011;25188;51.958;5.842;2023-12-04T03:34:45;22.67;;;11.80;;
39020;SDS011;25188;51.958;5.842;2023-12-04T03:37:10;25.33;;;12.77;;
39020;SDS011;25188;51.958;5.842;2023-12-04T03:39:36;24.93;;;12.10;;
39020;SDS011;25188;51.958;5.842;2023-12-04T03:42:02;26.30;;;12.37;;
39020;SDS011;25188;51.958;5.842;2023-12-04T03:44:28;24.60;;;12.30;;
39020;SDS011;25188;51.958;5.842;2023-12-04T03:46:53;22.00;;;11.17;;
39020;SDS011;25188;51.958;5.842;2023-12-04T03:49:19;22.07;;;12.17;;
39020;SDS011;25188;51.958;5.842;2023-12-04T03:51:45;22.77;;;11.00;;
39020;SDS011;25188;51.958;5.842;2023-12-04T03:54:10;20.43;;;10.13;;
39020;SDS011;25188;51.958;5.842;2023-12-04T03:56:38;24.20;;;11.33;;
39020;SDS011;25188;51.958;5.842;2023-12-04T03:59:04;23.47;;;10.87;;
39020;SDS011;25188;51.958;5.842;2023-12-04T04:01:30;22.57;;;10.87;;
39020;SDS011;25188;51.958;5.842;2023-12-04T04:03:55;23.33;;;11.43;;
39020;SDS011;25188;51.958;5.842;2023-12-04T04:06:21;23.07;;;11.57;;
39020;SDS011;25188;51.958;5.842;2023-12-04T04:08:46;23.33;;;11.17;;
39020;SDS011;25188;51.958;5.842;2023-12-04T04:11:12;22.07;;;11.17;;
39020;SDS011;25188;51.958;5.842;2023-12-04T04:13:38;23.00;;;11.23;;
39020;SDS011;25188;51.958;5.842;2023-12-04T04:16:03;23.03;;;12.30;;
39020;SDS011;25188;51.958;5.842;2023-12-04T04:18:29;23.10;;;11.90;;
39020;SDS011;25188;51.958;5.842;2023-12-04T04:20:55;20.23;;;10.90;;
39020;SDS011;25188;51.958;5.842;2023-12-04T04:23:21;21.03;;;11.20;;
39020;SDS011;25188;51.958;5.842;2023-12-04T04:25:46;21.53;;;10.63;;
39020;SDS011;25188;51.958;5.842;2023-12-04T04:28:12;21.57;;;10.47;;
39020;SDS011;25188;51.958;5.842;2023-12-04T04:30:38;19.53;;;10.47;;
39020;SDS011;25188;51.958;5.842;2023-12-04T04:33:05;23.37;;;11.23;;
39020;SDS011;25188;51.958;5.842;2023-12-04T04:35:30;19.20;;;11.00;;
39020;SDS011;25188;51.958;5.842;2023-12-04T04:37:56;19.17;;;9.50;;
39020;SDS011;25188;51.958;5.842;2023-12-04T04:40:22;19.43;;;9.83;;
39020;SDS011;25188;51.958;5.842;2023-12-04T04:42:48;21.23;;;10.80;;
39020;SDS011;25188;51.958;5.842;2023-12-04T04:45:13;18.93;;;9.53;;
39020;SDS011;25188;51.958;5.842;2023-12-04T04:47:39;21.63;;;10.40;;
39020;SDS011;25188;51.958;5.842;2023-12-04T04:50:05;21.17;;;10.13;;
39020;SDS011;25188;51.958;5.842;2023-12-04T04:52:31;23.57;;;11.20;;
39020;SDS011;25188;51.958;5.842;2023-12-04T04:54:56;19.97;;;10.17;;
39020;SDS011;25188;51.958;5.842;2023-12-04T04:57:22;19.57;;;9.90;;
39020;SDS011;25188;51.958;5.842;2023-12-04T04:59:48;20.90;;;10.27;;
39020;SDS011;25188;51.958;5.842;2023-12-04T05:02:13;21.07;;;11.37;;
39020;SDS011;25188;51.958;5.842;2023-12-04T05:04:39;21.20;;;10.63;;
39020;SDS011;25188;51.958;5.842;2023-12-04T05:07:04;17.47;;;9.90;;
39020;SDS011;25188;51.958;5.842;2023-12-04T05:09:30;18.53;;;9.93;;
39020;SDS011;25188;51.958;5.842;2023-12-04T05:11:56;20.00;;;10.90;;
39020;SDS011;25188;51.958;5.842;2023-12-04T05:14:21;17.13;;;9.07;;
39020;SDS011;25188;51.958;5.842;2023-12-04T05:16:47;20.87;;;10.10;;
39020;SDS011;25188;51.958;5.842;2023-12-04T05:19:13;20.63;;;9.77;;
39020;SDS011;25188;51.958;5.842;2023-12-04T05:21:38;20.50;;;10.83;;
39020;SDS011;25188;51.958;5.842;2023-12-04T05:24:04;20.20;;;9.50;;
39020;SDS011;25188;51.958;5.842;2023-12-04T05:26:30;21.37;;;11.07;;
39020;SDS011;25188;51.958;5.842;2023-12-04T05:28:56;19.37;;;10.77;;
39020;SDS011;25188;51.958;5.842;2023-12-04T05:31:21;19.17;;;9.70;;
39020;SDS011;25188;51.958;5.842;2023-12-04T05:33:47;19.73;;;10.03;;
39020;SDS011;25188;51.958;5.842;2023-12-04T05:36:13;22.27;;;10.13;;
39020;SDS011;25188;51.958;5.842;2023-12-04T05:38:38;18.63;;;9.87;;
39020;SDS011;25188;51.958;5.842;2023-12-04T05:41:04;18.53;;;10.40;;
39020;SDS011;25188;51.958;5.842;2023-12-04T05:43:30;15.77;;;9.03;;
39020;SDS011;25188;51.958;5.842;2023-12-04T05:45:55;20.17;;;10.67;;
39020;SDS011;25188;51.958;5.842;2023-12-04T05:48:21;19.30;;;10.37;;
39020;SDS011;25188;51.958;5.842;2023-12-04T05:50:46;18.57;;;9.10;;
39020;SDS011;25188;51.958;5.842;2023-12-04T05:53:12;18.50;;;9.53;;
39020;SDS011;25188;51.958;5.842;2023-12-04T05:55:38;19.00;;;9.87;;
39020;SDS011;25188;51.958;5.842;2023-12-04T05:58:03;18.00;;;9.83;;
39020;SDS011;25188;51.958;5.842;2023-12-04T06:00:29;21.07;;;10.40;;
39020;SDS011;25188;51.958;5.842;2023-12-04T06:02:54;19.40;;;9.63;;
39020;SDS011;25188;51.958;5.842;2023-12-04T06:05:20;18.30;;;9.13;;
39020;SDS011;25188;51.958;5.842;2023-12-04T06:07:46;16.07;;;8.53;;
39020;SDS011;25188;51.958;5.842;2023-12-04T06:10:11;15.27;;;8.00;;
39020;SDS011;25188;51.958;5.842;2023-12-04T06:12:37;16.80;;;9.13;;
39020;SDS011;25188;51.958;5.842;2023-12-04T06:15:03;19.07;;;10.23;;
39020;SDS011;25188;51.958;5.842;2023-12-04T06:17:29;16.33;;;9.40;;
39020;SDS011;25188;51.958;5.842;2023-12-04T06:19:55;19.27;;;8.77;;
39020;SDS011;25188;51.958;5.842;2023-12-04T06:22:20;15.70;;;8.73;;
39020;SDS011;25188;51.958;5.842;2023-12-04T06:24:47;16.87;;;8.87;;
39020;SDS011;25188;51.958;5.842;2023-12-04T06:27:17;15.80;;;8.93;;
39020;SDS011;25188;51.958;5.842;2023-12-04T06:29:47;13.52;;;7.15;;
39020;SDS011;25188;51.958;5.842;2023-12-04T06:32:14;17.73;;;8.80;;
39020;SDS011;25188;51.958;5.842;2023-12-04T06:34:40;16.30;;;8.50;;
39020;SDS011;25188;51.958;5.842;2023-12-04T06:37:09;15.53;;;7.97;;
39020;SDS011;25188;51.958;5.842;2023-12-04T06:39:36;16.57;;;8.40;;
39020;SDS011;25188;51.958;5.842;2023-12-04T06:42:07;17.07;;;8.03;;
39020;SDS011;25188;51.958;5.842;2023-12-04T06:44:34;17.67;;;9.00;;
39020;SDS011;25188;51.958;5.842;2023-12-04T06:47:00;17.03;;;8.33;;
39020;SDS011;25188;51.958;5.842;2023-12-04T06:49:30;16.83;;;9.10;;
39020;SDS011;25188;51.958;5.842;2023-12-04T06:51:57;16.33;;;7.80;;
39020;SDS011;25188;51.958;5.842;2023-12-04T06:54:23;15.57;;;7.27;;
39020;SDS011;25188;51.958;5.842;2023-12-04T06:56:49;15.57;;;7.67;;
39020;SDS011;25188;51.958;5.842;2023-12-04T06:59:15;15.47;;;7.87;;
39020;SDS011;25188;51.958;5.842;2023-12-04T07:01:40;15.90;;;8.17;;
39020;SDS011;25188;51.958;5.842;2023-12-04T07:04:06;16.23;;;8.87;;
39020;SDS011;25188;51.958;5.842;2023-12-04T07:06:38;16.23;;;8.03;;
39020;SDS011;25188;51.958;5.842;2023-12-04T07:09:04;16.00;;;7.90;;
39020;SDS011;25188;51.958;5.842;2023-12-04T07:11:32;13.27;;;7.33;;
39020;SDS011;25188;51.958;5.842;2023-12-04T07:13:58;16.87;;;8.70;;
39020;SDS011;25188;51.958;5.842;2023-12-04T07:16:24;14.53;;;7.50;;
39020;SDS011;25188;51.958;5.842;2023-12-04T07:18:49;17.27;;;7.87;;
39020;SDS011;25188;51.958;5.842;2023-12-04T07:21:15;15.20;;;7.77;;
39020;SDS011;25188;51.958;5.842;2023-12-04T07:23:41;13.63;;;7.53;;
39020;SDS011;25188;51.958;5.842;2023-12-04T07:26:06;15.00;;;8.23;;
39020;SDS011;25188;51.958;5.842;2023-12-04T07:28:32;16.10;;;7.67;;
39020;SDS011;25188;51.958;5.842;2023-12-04T07:30:58;15.97;;;7.97;;
39020;SDS011;25188;51.958;5.842;2023-12-04T07:33:26;13.60;;;6.97;;
39020;SDS011;25188;51.958;5.842;2023-12-04T07:35:52;15.10;;;8.00;;
39020;SDS011;25188;51.958;5.842;2023-12-04T07:38:18;16.10;;;7.50;;
39020;SDS011;25188;51.958;5.842;2023-12-04T07:40:44;13.37;;;7.40;;
39020;SDS011;25188;51.958;5.842;2023-12-04T07:43:10;13.20;;;6.93;;
39020;SDS011;25188;51.958;5.842;2023-12-04T07:45:36;14.27;;;7.03;;
39020;SDS011;25188;51.958;5.842;2023-12-04T07:48:02;12.93;;;6.60;;
39020;SDS011;25188;51.958;5.842;2023-12-04T07:50:28;14.40;;;7.07;;
39020;SDS011;25188;51.958;5.842;2023-12-04T07:52:54;12.53;;;6.60;;
39020;SDS011;25188;51.958;5.842;2023-12-04T07:55:20;11.63;;;6.23;;
39020;SDS011;25188;51.958;5.842;2023-12-04T07:57:45;13.27;;;6.33;;
39020;SDS011;25188;51.958;5.842;2023-12-04T08:00:12;11.83;;;6.50;;
39020;SDS011;25188;51.958;5.842;2023-12-04T08:02:39;12.03;;;6.13;;
39020;SDS011;25188;51.958;5.842;2023-12-04T08:05:04;14.00;;;6.77;;
39020;SDS011;25188;51.958;5.842;2023-12-04T08:07:31;12.30;;;6.60;;
39020;SDS011;25188;51.958;5.842;2023-12-04T08:09:57;13.17;;;6.80;;
39020;SDS011;25188;51.958;5.842;2023-12-04T08:12:23;14.27;;;6.57;;
39020;SDS011;25188;51.958;5.842;2023-12-04T08:14:48;13.17;;;6.00;;
39020;SDS011;25188;51.958;5.842;2023-12-04T08:17:14;13.40;;;6.73;;
39020;SDS011;25188;51.958;5.842;2023-12-04T08:19:39;11.30;;;5.90;;
39020;SDS011;25188;51.958;5.842;2023-12-04T08:22:06;12.30;;;6.80;;
39020;SDS011;25188;51.958;5.842;2023-12-04T08:24:32;14.90;;;7.53;;
39020;SDS011;25188;51.958;5.842;2023-12-04T08:26:58;14.00;;;7.20;;
39020;SDS011;25188;51.958;5.842;2023-12-04T08:29:23;13.73;;;6.33;;
39020;SDS011;25188;51.958;5.842;2023-12-04T08:31:49;12.43;;;6.10;;
39020;SDS011;25188;51.958;5.842;2023-12-04T08:34:15;14.23;;;6.80;;
39020;SDS011;25188;51.958;5.842;2023-12-04T08:36:41;14.30;;;7.03;;
39020;SDS011;25188;51.958;5.842;2023-12-04T08:39:06;12.90;;;6.40;;
39020;SDS011;25188;51.958;5.842;2023-12-04T08:41:32;13.30;;;6.73;;
39020;SDS011;25188;51.958;5.842;2023-12-04T08:43:58;11.27;;;5.27;;
39020;SDS011;25188;51.958;5.842;2023-12-04T08:46:23;11.67;;;5.97;;
39020;SDS011;25188;51.958;5.842;2023-12-04T08:48:49;13.53;;;6.17;;
39020;SDS011;25188;51.958;5.842;2023-12-04T08:51:17;11.27;;;6.23;;
39020;SDS011;25188;51.958;5.842;2023-12-04T08:53:43;13.00;;;6.30;;
39020;SDS011;25188;51.958;5.842;2023-12-04T08:56:10;12.43;;;5.80;;
39020;SDS011;25188;51.958;5.842;2023-12-04T08:58:36;13.23;;;6.40;;
39020;SDS011;25188;51.958;5.842;2023-12-04T09:01:02;11.67;;;5.63;;
39020;SDS011;25188;51.958;5.842;2023-12-04T09:03:28;13.37;;;6.20;;
39020;SDS011;25188;51.958;5.842;2023-12-04T09:05:56;12.83;;;6.40;;
39020;SDS011;25188;51.958;5.842;2023-12-04T09:08:22;12.47;;;6.47;;
39020;SDS011;25188;51.958;5.842;2023-12-04T09:10:50;10.10;;;5.60;;
39020;SDS011;25188;51.958;5.842;2023-12-04T09:13:16;11.03;;;5.70;;
39020;SDS011;25188;51.958;5.842;2023-12-04T09:15:41;12.63;;;6.37;;
39020;SDS011;25188;51.958;5.842;2023-12-04T09:18:07;11.27;;;5.57;;
39020;SDS011;25188;51.958;5.842;2023-12-04T09:20:33;11.80;;;5.73;;
39020;SDS011;25188;51.958;5.842;2023-12-04T09:22:59;12.93;;;6.53;;
39020;SDS011;25188;51.958;5.842;2023-12-04T09:25:24;13.47;;;6.67;;
39020;SDS011;25188;51.958;5.842;2023-12-04T09:27:51;11.50;;;6.33;;
39020;SDS011;25188;51.958;5.842;2023-12-04T09:30:16;13.33;;;6.13;;
39020;SDS011;25188;51.958;5.842;2023-12-04T09:32:43;11.50;;;5.47;;
39020;SDS011;25188;51.958;5.842;2023-12-04T09:35:08;12.63;;;6.37;;
39020;SDS011;25188;51.958;5.842;2023-12-04T09:37:34;14.00;;;6.70;;
39020;SDS011;25188;51.958;5.842;2023-12-04T09:40:00;10.90;;;5.83;;
39020;SDS011;25188;51.958;5.842;2023-12-04T09:42:26;12.77;;;6.87;;
39020;SDS011;25188;51.958;5.842;2023-12-04T09:44:51;11.57;;;6.20;;
39020;SDS011;25188;51.958;5.842;2023-12-04T09:47:17;12.93;;;6.43;;
39020;SDS011;25188;51.958;5.842;2023-12-04T09:49:46;11.73;;;5.80;;
39020;SDS011;25188;51.958;5.842;2023-12-04T09:52:13;12.50;;;6.13;;
39020;SDS011;25188;51.958;5.842;2023-12-04T09:54:39;11.30;;;5.47;;
39020;SDS011;25188;51.958;5.842;2023-12-04T09:57:06;11.83;;;6.10;;
39020;SDS011;25188;51.958;5.842;2023-12-04T09:59:32;12.97;;;6.33;;
39020;SDS011;25188;51.958;5.842;2023-12-04T10:01:58;13.53;;;6.77;;
39020;SDS011;25188;51.958;5.842;2023-12-04T10:04:24;13.37;;;6.73;;
39020;SDS011;25188;51.958;5.842;2023-12-04T10:06:51;14.40;;;6.40;;
39020;SDS011;25188;51.958;5.842;2023-12-04T10:09:19;12.67;;;6.23;;
39020;SDS011;25188;51.958;5.842;2023-12-04T10:11:47;13.43;;;7.83;;
39020;SDS011;25188;51.958;5.842;2023-12-04T10:14:16;12.87;;;7.10;;
39020;SDS011;25188;51.958;5.842;2023-12-04T10:16:46;14.50;;;7.87;;
39020;SDS011;25188;51.958;5.842;2023-12-04T10:19:16;12.53;;;7.27;;
39020;SDS011;25188;51.958;5.842;2023-12-04T10:21:47;14.97;;;6.90;;
39020;SDS011;25188;51.958;5.842;2023-12-04T10:26:52;14.17;;;7.27;;
39020;SDS011;25188;51.958;5.842;2023-12-04T10:29:18;13.93;;;7.53;;
39020;SDS011;25188;51.958;5.842;2023-12-04T10:31:44;12.43;;;6.97;;
39020;SDS011;25188;51.958;5.842;2023-12-04T10:34:09;12.63;;;6.50;;
39020;SDS011;25188;51.958;5.842;2023-12-04T10:36:35;15.87;;;8.90;;
39020;SDS011;25188;51.958;5.842;2023-12-04T10:39:02;15.87;;;7.37;;
39020;SDS011;25188;51.958;5.842;2023-12-04T10:41:31;13.67;;;6.97;;
39020;SDS011;25188;51.958;5.842;2023-12-04T10:43:57;16.27;;;8.03;;
39020;SDS011;25188;51.958;5.842;2023-12-04T10:46:27;15.57;;;7.57;;
39020;SDS011;25188;51.958;5.842;2023-12-04T10:48:53;14.37;;;8.07;;
39020;SDS011;25188;51.958;5.842;2023-12-04T10:51:20;13.87;;;8.10;;
39020;SDS011;25188;51.958;5.842;2023-12-04T10:53:48;14.63;;;8.30;;
39020;SDS011;25188;51.958;5.842;2023-12-04T10:56:16;15.33;;;7.97;;
39020;SDS011;25188;51.958;5.842;2023-12-04T10:58:47;14.20;;;8.10;;
39020;SDS011;25188;51.958;5.842;2023-12-04T11:01:16;15.17;;;8.07;;
39020;SDS011;25188;51.958;5.842;2023-12-04T11:03:44;13.90;;;7.30;;
39020;SDS011;25188;51.958;5.842;2023-12-04T11:06:13;13.33;;;7.33;;
39020;SDS011;25188;51.958;5.842;2023-12-04T11:08:42;14.20;;;7.27;;
39020;SDS011;25188;51.958;5.842;2023-12-04T11:11:10;16.53;;;9.27;;
39020;SDS011;25188;51.958;5.842;2023-12-04T11:13:39;15.03;;;8.13;;
39020;SDS011;25188;51.958;5.842;2023-12-04T11:16:12;14.23;;;7.87;;
39020;SDS011;25188;51.958;5.842;2023-12-04T11:18:44;13.90;;;7.43;;
39020;SDS011;25188;51.958;5.842;2023-12-04T11:21:26;16.20;;;9.13;;
39020;SDS011;25188;51.958;5.842;2023-12-04T11:23:54;15.47;;;8.47;;
39020;SDS011;25188;51.958;5.842;2023-12-04T11:26:20;15.43;;;7.97;;
39020;SDS011;25188;51.958;5.842;2023-12-04T11:28:47;15.17;;;8.27;;
39020;SDS011;25188;51.958;5.842;2023-12-04T11:31:14;15.37;;;7.53;;
39020;SDS011;25188;51.958;5.842;2023-12-04T11:33:41;15.57;;;8.10;;
39020;SDS011;25188;51.958;5.842;2023-12-04T11:36:10;13.53;;;7.80;;
39020;SDS011;25188;51.958;5.842;2023-12-04T11:38:38;14.43;;;7.93;;
39020;SDS011;25188;51.958;5.842;2023-12-04T11:41:14;13.23;;;7.13;;
39020;SDS011;25188;51.958;5.842;2023-12-04T11:43:41;15.48;;;8.38;;
39020;SDS011;25188;51.958;5.842;2023-12-04T11:46:08;16.03;;;7.47;;
39020;SDS011;25188;51.958;5.842;2023-12-04T11:48:38;13.17;;;7.40;;
39020;SDS011;25188;51.958;5.842;2023-12-04T11:51:05;14.83;;;7.60;;
39020;SDS011;25188;51.958;5.842;2023-12-04T11:53:32;11.77;;;6.73;;
39020;SDS011;25188;51.958;5.842;2023-12-04T11:56:08;14.37;;;7.27;;
39020;SDS011;25188;51.958;5.842;2023-12-04T11:58:43;15.87;;;7.90;;
39020;SDS011;25188;51.958;5.842;2023-12-04T12:01:09;15.07;;;7.87;;
39020;SDS011;25188;51.958;5.842;2023-12-04T12:03:36;12.87;;;7.10;;
39020;SDS011;25188;51.958;5.842;2023-12-04T12:06:02;12.63;;;6.57;;
39020;SDS011;25188;51.958;5.842;2023-12-04T12:08:28;13.53;;;7.30;;
39020;SDS011;25188;51.958;5.842;2023-12-04T12:10:54;14.83;;;7.10;;
39020;SDS011;25188;51.958;5.842;2023-12-04T12:13:21;16.73;;;8.33;;
39020;SDS011;25188;51.958;5.842;2023-12-04T12:15:48;15.17;;;7.70;;
39020;SDS011;25188;51.958;5.842;2023-12-04T12:18:16;12.03;;;6.27;;
39020;SDS011;25188;51.958;5.842;2023-12-04T12:20:41;14.67;;;7.73;;
39020;SDS011;25188;51.958;5.842;2023-12-04T12:23:07;13.43;;;7.33;;
39020;SDS011;25188;51.958;5.842;2023-12-04T12:25:34;15.43;;;7.57;;
39020;SDS011;25188;51.958;5.842;2023-12-04T12:28:04;14.03;;;7.37;;
39020;SDS011;25188;51.958;5.842;2023-12-04T12:30:30;15.03;;;7.73;;
39020;SDS011;25188;51.958;5.842;2023-12-04T12:32:56;14.03;;;7.20;;
39020;SDS011;25188;51.958;5.842;2023-12-04T12:35:22;15.60;;;7.83;;
39020;SDS011;25188;51.958;5.842;2023-12-04T12:37:48;14.90;;;7.17;;
39020;SDS011;25188;51.958;5.842;2023-12-04T12:40:18;15.93;;;7.50;;
39020;SDS011;25188;51.958;5.842;2023-12-04T12:42:45;14.57;;;7.03;;
39020;SDS011;25188;51.958;5.842;2023-12-04T12:45:11;13.23;;;6.73;;
39020;SDS011;25188;51.958;5.842;2023-12-04T12:47:39;15.90;;;8.20;;
39020;SDS011;25188;51.958;5.842;2023-12-04T12:50:07;12.83;;;7.13;;
39020;SDS011;25188;51.958;5.842;2023-12-04T12:52:35;14.80;;;7.50;;
39020;SDS011;25188;51.958;5.842;2023-12-04T12:55:02;13.07;;;6.93;;
39020;SDS011;25188;51.958;5.842;2023-12-04T12:57:29;12.47;;;6.27;;
39020;SDS011;25188;51.958;5.842;2023-12-04T12:59:55;13.17;;;6.87;;
39020;SDS011;25188;51.958;5.842;2023-12-04T13:02:21;18.20;;;9.00;;
39020;SDS011;25188;51.958;5.842;2023-12-04T13:04:47;15.73;;;7.63;;
39020;SDS011;25188;51.958;5.842;2023-12-04T13:07:13;18.43;;;7.90;;
39020;SDS011;25188;51.958;5.842;2023-12-04T13:09:39;13.70;;;7.77;;
39020;SDS011;25188;51.958;5.842;2023-12-04T13:12:05;15.70;;;8.47;;
39020;SDS011;25188;51.958;5.842;2023-12-04T13:14:33;19.90;;;8.70;;
39020;SDS011;25188;51.958;5.842;2023-12-04T13:16:59;12.80;;;7.27;;
39020;SDS011;25188;51.958;5.842;2023-12-04T13:19:26;15.80;;;8.13;;
39020;SDS011;25188;51.958;5.842;2023-12-04T13:21:52;15.20;;;8.13;;
39020;SDS011;25188;51.958;5.842;2023-12-04T13:24:18;15.53;;;8.10;;
39020;SDS011;25188;51.958;5.842;2023-12-04T13:26:46;15.47;;;8.43;;
39020;SDS011;25188;51.958;5.842;2023-12-04T13:29:12;14.23;;;7.87;;
39020;SDS011;25188;51.958;5.842;2023-12-04T13:31:42;13.73;;;8.10;;
39020;SDS011;25188;51.958;5.842;2023-12-04T13:34:08;15.10;;;7.73;;
39020;SDS011;25188;51.958;5.842;2023-12-04T13:36:33;13.93;;;7.80;;
39020;SDS011;25188;51.958;5.842;2023-12-04T13:39:01;12.27;;;7.20;;
39020;SDS011;25188;51.958;5.842;2023-12-04T13:41:27;14.23;;;7.13;;
39020;SDS011;25188;51.958;5.842;2023-12-04T13:44:12;12.52;;;6.43;;
39020;SDS011;25188;51.958;5.842;2023-12-04T15:29:47;16.60;;;9.67;;
39020;SDS011;25188;51.958;5.842;2023-12-04T15:32:13;17.03;;;8.83;;
39020;SDS011;25188;51.958;5.842;2023-12-04T15:34:39;15.03;;;8.17;;
39020;SDS011;25188;51.958;5.842;2023-12-04T15:37:04;16.73;;;8.17;;
39020;SDS011;25188;51.958;5.842;2023-12-04T15:39:30;14.90;;;8.33;;
39020;SDS011;25188;51.958;5.842;2023-12-04T15:41:56;14.20;;;8.00;;
39020;SDS011;25188;51.958;5.842;2023-12-04T15:44:22;16.67;;;9.20;;
39020;SDS011;25188;51.958;5.842;2023-12-04T15:46:47;17.27;;;8.87;;
39020;SDS011;25188;51.958;5.842;2023-12-04T15:49:13;17.97;;;8.67;;
39020;SDS011;25188;51.958;5.842;2023-12-04T15:51:39;17.50;;;9.40;;
39020;SDS011;25188;51.958;5.842;2023-12-04T15:54:04;16.97;;;9.07;;
39020;SDS011;25188;51.958;5.842;2023-12-04T15:56:31;16.97;;;9.53;;
39020;SDS011;25188;51.958;5.842;2023-12-04T15:58:56;15.40;;;8.97;;
39020;SDS011;25188;51.958;5.842;2023-12-04T16:01:22;17.50;;;8.93;;
39020;SDS011;25188;51.958;5.842;2023-12-04T16:03:48;16.03;;;9.13;;
39020;SDS011;25188;51.958;5.842;2023-12-04T16:06:15;16.30;;;9.20;;
39020;SDS011;25188;51.958;5.842;2023-12-04T16:08:41;17.73;;;9.20;;